Time;durP1;ratioP1;P1;durP2;ratioP2;P2;SDS_P1;SDS_P2;PMS_P1;PMS_P2;Temp;Humidity;BMP_temperature;BMP_pressure;BME280_temperature;BME280_humidity;BME280_pressure;Samples;Min_cycle;Max_cycle;Signal;HPM_P1;HPM_P2
2022/06/28 00:01:16;;;;;;;5.30;4.90;;;;;;;23.12;68.76;99497.20;1792971;80;20927;-70
2022/06/28 00:03:43;;;;;;;6.17;5.45;;;;;;;23.08;68.95;99493.86;1770770;80;21219;-70
2022/06/28 00:06:10;;;;;;;7.72;5.12;;;;;;;23.02;69.28;99493.53;1774712;79;20873;-70
2022/06/28 00:08:37;;;;;;;5.55;5.05;;;;;;;22.99;69.65;99496.20;1761508;80;20984;-69
2022/06/28 00:11:04;;;;;;;6.22;5.40;;;;;;;22.97;69.79;99490.19;1761605;80;20937;-73
2022/06/28 00:13:30;;;;;;;5.22;4.75;;;;;;;22.95;70.07;99493.69;1772516;80;20911;-68
2022/06/28 00:16:06;;;;;;;5.87;5.22;;;;;;;22.95;70.29;99490.98;1791620;80;21245;-69
2022/06/28 00:18:35;;;;;;;9.85;5.97;;;;;;;22.97;70.43;99490.75;1769785;79;21439;-70
2022/06/28 00:21:03;;;;;;;11.40;5.90;;;;;;;22.96;70.62;99493.98;1761362;80;20981;-72
2022/06/28 00:23:30;;;;;;;7.45;5.40;;;;;;;22.94;70.66;99494.78;1761537;80;21444;-73
2022/06/28 00:25:57;;;;;;;7.53;5.72;;;;;;;22.92;70.62;99494.19;1772684;80;21471;-71
2022/06/28 00:28:24;;;;;;;7.00;6.03;;;;;;;22.90;70.64;99494.16;1770237;80;21524;-71
2022/06/28 00:30:50;;;;;;;6.50;5.95;;;;;;;22.89;70.79;99490.61;1786317;80;21538;-72
2022/06/28 00:33:17;;;;;;;11.45;6.08;;;;;;;22.86;70.96;99487.06;1771410;80;21544;-72
2022/06/28 00:35:44;;;;;;;11.73;7.95;;;;;;;22.83;71.11;99475.89;1788495;80;21534;-69
2022/06/28 00:38:11;;;;;;;8.98;6.83;;;;;;;22.82;71.27;99478.30;1779637;80;20933;-68
2022/06/28 00:40:50;;;;;;;7.17;6.42;;;;;;;22.79;71.41;99479.62;1733090;81;21831;-73
2022/06/28 00:43:17;;;;;;;7.75;6.97;;;;;;;22.78;71.48;99477.17;1738242;81;20974;-71
2022/06/28 00:45:44;;;;;;;6.72;6.12;;;;;;;22.77;71.56;99479.59;1754722;81;21539;-70
2022/06/28 00:48:15;;;;;;;12.28;7.30;;;;;;;22.76;71.55;99477.96;1746808;81;21046;-67
2022/06/28 00:50:42;;;;;;;11.70;7.15;;;;;;;22.75;71.53;99474.42;1769493;80;20911;-69
2022/06/28 00:53:16;;;;;;;8.40;7.62;;;;;;;22.73;71.54;99481.43;1740904;79;21557;-72
2022/06/28 00:55:44;;;;;;;9.08;7.55;;;;;;;22.73;71.58;99474.66;1748349;81;20891;-73
2022/06/28 00:58:11;;;;;;;8.68;7.87;;;;;;;22.74;71.65;99479.55;1770411;81;20876;-71
2022/06/28 01:00:41;;;;;;;11.22;7.83;;;;;;;22.72;71.70;99472.20;1732303;81;20986;-72
2022/06/28 01:03:11;;;;;;;9.90;7.00;;;;;;;22.70;71.72;99469.76;1761188;81;21422;-69
2022/06/28 01:05:38;;;;;;;8.05;7.25;;;;;;;22.68;71.75;99471.87;1773826;81;21127;-72
2022/06/28 01:08:05;;;;;;;8.43;7.42;;;;;;;22.66;71.87;99470.48;1747333;79;20926;-71
2022/06/28 01:10:34;;;;;;;9.05;8.18;;;;;;;22.66;72.04;99473.19;1771920;81;20926;-71
2022/06/28 01:13:01;;;;;;;11.80;8.93;;;;;;;22.67;72.15;99472.12;1752923;81;20987;-70
2022/06/28 01:15:30;;;;;;;11.22;8.83;;;;;;;22.70;72.15;99467.05;1736318;81;20910;-70
2022/06/28 01:17:59;;;;;;;9.35;8.58;;;;;;;22.69;72.08;99467.27;1732027;81;21160;-71
2022/06/28 01:20:31;;;;;;;8.30;7.55;;;;;;;22.70;71.95;99472.99;1728134;81;20903;-70
2022/06/28 01:22:59;;;;;;;7.75;6.60;;;;;;;22.68;71.91;99468.36;1757095;79;20959;-74
2022/06/28 01:25:26;;;;;;;9.18;6.42;;;;;;;22.66;71.92;99475.90;1743740;81;21017;-72
2022/06/28 01:27:53;;;;;;;9.35;8.48;;;;;;;22.61;71.82;99477.15;1757973;81;20946;-71
2022/06/28 01:30:20;;;;;;;8.05;7.15;;;;;;;22.57;71.79;99477.38;1732286;81;21316;-72
2022/06/28 01:32:54;;;;;;;7.85;7.15;;;;;;;22.56;71.73;99478.43;1761316;80;21006;-72
2022/06/28 01:35:20;;;;;;;8.40;7.60;;;;;;;22.52;71.61;99482.72;1732304;81;20999;-72
2022/06/28 01:37:49;;;;;;;6.47;5.87;;;;;;;22.49;71.82;99481.33;1761457;81;21498;-69
2022/06/28 01:40:16;;;;;;;6.55;5.90;;;;;;;22.46;71.77;99480.98;1728154;81;21019;-73
2022/06/28 01:42:43;;;;;;;8.35;6.55;;;;;;;22.40;71.65;99475.19;1765214;79;21264;-71
2022/06/28 01:45:10;;;;;;;9.58;7.10;;;;;;;22.36;71.73;99479.47;1728744;81;20917;-70
2022/06/28 01:47:44;;;;;;;7.03;6.35;;;;;;;22.31;71.91;99484.28;1736410;81;20910;-71
2022/06/28 01:50:23;;;;;;;7.47;6.67;;;;;;;22.29;72.15;99477.47;1751084;80;20950;-70
2022/06/28 01:52:50;;;;;;;8.20;7.50;;;;;;;22.29;72.28;99481.53;1756457;81;20875;-73
2022/06/28 01:55:18;;;;;;;9.23;6.87;;;;;;;22.31;72.27;99475.33;1777107;80;21963;-72
2022/06/28 01:57:46;;;;;;;7.83;6.08;;;;;;;22.33;72.07;99478.61;1749266;79;20942;-69
2022/06/28 02:00:13;;;;;;;7.12;6.42;;;;;;;22.33;71.91;99472.66;1740501;81;20892;-71
2022/06/28 02:02:43;;;;;;;8.73;6.45;;;;;;;22.31;71.74;99473.97;1769415;79;20891;-70
2022/06/28 02:05:29;;;;;;;6.15;5.55;;;;;;;22.23;71.61;99474.38;1756831;81;20894;-69
2022/06/28 02:07:57;;;;;;;8.38;5.17;;;;;;;22.08;71.38;99473.04;1756516;81;21189;-69
2022/06/28 02:10:25;;;;;;;6.50;5.90;;;;;;;21.93;71.55;99476.84;1765895;79;20946;-69
2022/06/28 02:12:52;;;;;;;6.47;5.53;;;;;;;21.85;72.21;99470.95;1750693;81;20931;-69
2022/06/28 02:15:19;;;;;;;7.10;6.40;;;;;;;21.88;73.13;99475.39;1743845;81;20906;-70
2022/06/28 02:17:46;;;;;;;7.22;6.55;;;;;;;21.88;73.13;99475.39;1773909;81;20967;-71
2022/06/28 02:20:13;;;;;;;6.00;5.47;;;;;;;21.95;73.16;99476.05;1743378;79;21240;-71
2022/06/28 02:22:40;;;;;;;6.05;5.55;;;;;;;22.01;72.87;99476.97;1751855;79;21014;-72
2022/06/28 02:25:08;;;;;;;8.15;5.70;;;;;;;22.05;72.66;99474.08;1745505;81;20919;-70
2022/06/28 02:27:34;;;;;;;7.15;5.53;;;;;;;22.08;72.60;99477.66;1732533;81;21532;-70
2022/06/28 02:30:03;;;;;;;8.03;6.05;;;;;;;22.13;72.66;99473.13;1732560;81;21033;-71
2022/06/28 02:32:29;;;;;;;6.58;5.45;;;;;;;22.13;72.66;99473.13;1770697;80;21788;-72
2022/06/28 02:40:22;;;;;;;7.08;5.97;;;;;;;22.42;71.80;99472.52;1717436;81;20891;-69
2022/06/28 02:42:53;;;;;;;6.05;5.45;;;;;;;22.48;71.01;99469.35;1759748;81;21434;-69
2022/06/28 02:45:22;;;;;;;5.90;5.50;;;;;;;22.43;70.53;99473.34;1742806;81;21109;-71
2022/06/28 02:47:49;;;;;;;6.47;5.92;;;;;;;22.35;70.48;99475.11;1732338;81;20926;-70
2022/06/28 02:50:15;;;;;;;7.80;5.85;;;;;;;22.29;70.72;99476.11;1770621;80;21028;-69
2022/06/28 02:52:43;;;;;;;7.17;6.53;;;;;;;22.31;70.85;99477.51;1753541;80;20883;-73
2022/06/28 02:55:11;;;;;;;7.40;6.65;;;;;;;22.37;70.93;99485.19;1747411;80;20876;-71
2022/06/28 02:57:38;;;;;;;7.00;6.30;;;;;;;22.44;70.91;99477.70;1771908;81;21294;-69
2022/06/28 03:00:09;;;;;;;8.10;6.15;;;;;;;22.52;70.75;99480.01;1767875;81;21041;-70
2022/06/28 03:02:37;;;;;;;8.40;7.67;;;;;;;22.63;70.51;99480.48;1756377;81;21465;-70
2022/06/28 03:05:06;;;;;;;7.50;6.03;;;;;;;22.73;70.38;99482.79;1773772;79;21010;-69
2022/06/28 03:07:33;;;;;;;6.67;6.08;;;;;;;22.88;70.02;99489.52;1755648;81;20902;-71
2022/06/28 03:09:59;;;;;;;6.00;5.47;;;;;;;23.02;69.54;99490.25;1716975;81;21228;-73
2022/06/28 03:12:26;;;;;;;6.10;5.60;;;;;;;23.16;68.99;99492.08;1739944;81;20977;-70
2022/06/28 03:14:53;;;;;;;6.05;5.53;;;;;;;23.29;68.47;99487.63;1732456;81;20946;-68
2022/06/28 03:17:20;;;;;;;5.95;5.42;;;;;;;23.45;67.97;99480.53;1747593;80;20990;-71
2022/06/28 03:19:46;;;;;;;9.43;6.28;;;;;;;23.62;67.40;99488.88;1732595;81;20978;-69
2022/06/28 03:22:13;;;;;;;7.58;6.10;;;;;;;23.81;67.20;99482.56;1742874;80;21278;-69
2022/06/28 03:24:40;;;;;;;7.72;5.80;;;;;;;23.99;67.29;99480.84;1732476;81;20908;-71
2022/06/28 03:27:07;;;;;;;8.08;6.10;;;;;;;24.16;66.90;99484.84;1750881;79;20911;-72
2022/06/28 03:29:34;;;;;;;6.72;6.03;;;;;;;24.29;66.28;99492.58;1755088;81;21085;-69
2022/06/28 03:32:01;;;;;;;5.90;5.40;;;;;;;24.42;65.60;99482.63;1751287;81;20907;-70
2022/06/28 03:34:28;;;;;;;7.50;6.62;;;;;;;24.54;64.76;99480.00;1739723;81;21276;-71
2022/06/28 03:36:55;;;;;;;6.22;5.45;;;;;;;24.69;64.10;99477.13;1747632;80;20982;-70
2022/06/28 03:39:26;;;;;;;8.25;5.85;;;;;;;24.84;63.56;99478.61;1740677;80;20867;-69
2022/06/28 03:41:54;;;;;;;10.23;6.22;;;;;;;25.00;63.05;99481.13;1741726;81;20951;-70
2022/06/28 03:44:21;;;;;;;7.72;6.65;;;;;;;25.26;62.62;99481.28;1744668;81;21009;-69
2022/06/28 03:46:47;;;;;;;7.62;6.75;;;;;;;25.68;61.66;99475.21;1742697;81;21216;-71
2022/06/28 03:49:25;;;;;;;10.45;6.75;;;;;;;26.18;60.46;99477.20;1744732;80;20973;-69
2022/06/28 03:51:53;;;;;;;7.95;7.00;;;;;;;26.72;58.90;99480.20;1741182;80;21473;-69
2022/06/28 03:54:21;;;;;;;8.58;7.70;;;;;;;27.24;57.56;99485.30;1747227;80;21021;-69
2022/06/28 03:56:50;;;;;;;8.83;7.65;;;;;;;27.75;56.00;99485.35;1761148;81;21460;-72
2022/06/28 03:59:17;;;;;;;8.45;7.40;;;;;;;28.21;54.29;99480.41;1751503;81;21579;-71
2022/06/28 04:01:44;;;;;;;8.75;7.00;;;;;;;28.66;52.90;99475.97;1757851;80;21036;-71
2022/06/28 04:04:11;;;;;;;8.90;7.40;;;;;;;29.13;51.44;99476.56;1771491;81;20864;-70
2022/06/28 04:06:39;;;;;;;6.97;6.37;;;;;;;29.63;50.06;99474.33;1774685;81;20940;-69
2022/06/28 04:09:06;;;;;;;7.60;6.90;;;;;;;30.12;48.51;99479.39;1758877;81;20891;-70
2022/06/28 04:11:33;;;;;;;6.75;6.15;;;;;;;30.55;47.67;99482.30;1735455;81;21227;-71
2022/06/28 04:14:01;;;;;;;5.70;5.22;;;;;;;31.04;46.58;99485.81;1733068;79;20918;-74
2022/06/28 04:16:29;;;;;;;5.83;5.35;;;;;;;31.51;45.23;99483.24;1732711;81;20998;-71
2022/06/28 04:18:57;;;;;;;5.67;5.17;;;;;;;32.00;44.45;99483.82;1741188;81;20931;-74
2022/06/28 04:21:25;;;;;;;6.30;5.60;;;;;;;32.46;43.05;99480.20;1771430;80;21529;-70
2022/06/28 04:23:56;;;;;;;9.68;5.67;;;;;;;32.85;41.55;99473.42;1767881;79;21135;-71
2022/06/28 04:26:23;;;;;;;5.30;4.80;;;;;;;33.26;40.81;99469.58;1732473;81;20954;-71
2022/06/28 04:28:50;;;;;;;5.62;4.58;;;;;;;33.66;39.69;99469.78;1732623;81;22271;-69
2022/06/28 04:31:21;;;;;;;5.00;4.42;;;;;;;33.97;38.92;99467.70;1762291;81;21024;-69
2022/06/28 04:33:47;;;;;;;7.55;5.33;;;;;;;34.38;38.12;99463.66;1752829;81;20928;-69
2022/06/28 04:36:15;;;;;;;6.40;4.35;;;;;;;34.77;37.32;99459.29;1766415;81;21300;-73
2022/06/28 04:38:43;;;;;;;5.08;4.30;;;;;;;35.12;36.81;99462.77;1757828;81;20931;-72
2022/06/28 04:41:11;;;;;;;5.33;4.20;;;;;;;35.60;36.25;99463.73;1783673;80;20886;-70
2022/06/28 04:43:40;;;;;;;4.67;4.30;;;;;;;36.00;35.43;99465.48;1775289;79;20890;-73
2022/06/28 04:46:07;;;;;;;6.28;5.55;;;;;;;36.46;34.74;99471.59;1778860;80;20949;-69
2022/06/28 04:48:36;;;;;;;4.90;3.90;;;;;;;36.86;33.89;99461.34;1759142;80;21910;-72
2022/06/28 04:51:12;;;;;;;4.53;4.10;;;;;;;37.13;33.28;99466.83;1768626;80;21397;-70
2022/06/28 04:53:41;;;;;;;4.37;3.85;;;;;;;37.33;32.89;99465.33;1768098;80;20934;-71
2022/06/28 04:56:08;;;;;;;4.92;4.03;;;;;;;37.68;32.39;99465.65;1763672;80;20994;-72
2022/06/28 04:58:36;;;;;;;4.85;3.52;;;;;;;37.99;31.67;99470.00;1740383;81;20908;-70
2022/06/28 05:01:03;;;;;;;3.70;3.40;;;;;;;38.35;30.69;99475.23;1759185;80;21193;-67
2022/06/28 05:03:30;;;;;;;3.70;3.35;;;;;;;38.68;29.91;99467.41;1786994;80;20896;-67
2022/06/28 05:06:03;;;;;;;4.42;3.75;;;;;;;39.02;29.32;99474.28;1775765;80;20890;-68
2022/06/28 05:08:32;;;;;;;5.78;3.62;;;;;;;39.38;28.70;99475.41;1788797;80;20852;-70
2022/06/28 05:11:01;;;;;;;5.35;3.20;;;;;;;39.78;28.27;99473.20;1788251;80;20895;-66
2022/06/28 05:13:30;;;;;;;2.92;2.72;;;;;;;40.06;26.88;99476.63;1768159;79;21211;-71
2022/06/28 05:15:58;;;;;;;5.75;3.35;;;;;;;40.24;26.30;99473.39;1775275;79;20925;-71
2022/06/28 05:18:25;;;;;;;3.60;3.30;;;;;;;40.33;25.85;99475.37;1773282;80;21461;-70
2022/06/28 05:20:51;;;;;;;6.70;3.37;;;;;;;40.14;25.75;99464.23;1788272;80;20997;-73
2022/06/28 05:23:18;;;;;;;3.40;3.20;;;;;;;39.98;26.08;99469.27;1783336;80;21022;-71
2022/06/28 05:26:03;;;;;;;3.90;2.95;;;;;;;40.28;25.87;99463.95;1758542;80;21150;-68
2022/06/28 05:28:30;;;;;;;3.77;3.47;;;;;;;40.63;25.29;99462.44;1758799;80;20870;-68
2022/06/28 05:30:57;;;;;;;3.80;3.02;;;;;;;40.77;24.98;99466.09;1776381;80;20933;-72
2022/06/28 05:33:24;;;;;;;3.45;2.95;;;;;;;41.09;25.29;99471.67;1770528;80;21020;-72
2022/06/28 05:35:51;;;;;;;6.35;3.08;;;;;;;41.66;24.09;99477.58;1779600;80;20974;-77
2022/06/28 05:38:18;;;;;;;3.90;3.60;;;;;;;41.98;23.35;99477.44;1759080;80;21310;-71
2022/06/28 05:40:45;;;;;;;4.28;3.40;;;;;;;42.12;23.31;99474.02;1768650;80;21018;-71
2022/06/28 05:43:12;;;;;;;6.92;3.30;;;;;;;42.41;22.87;99474.02;1763408;79;20951;-69
2022/06/28 05:45:38;;;;;;;4.33;3.92;;;;;;;42.72;22.60;99474.76;1773231;81;20998;-71
2022/06/28 05:48:06;;;;;;;3.90;3.50;;;;;;;42.98;22.56;99471.25;1739731;81;21089;-70
2022/06/28 05:50:33;;;;;;;4.15;3.60;;;;;;;43.25;22.33;99474.68;1746885;81;21231;-70
2022/06/28 05:53:00;;;;;;;4.47;2.92;;;;;;;43.59;21.93;99481.76;1752708;81;20975;-69
2022/06/28 05:55:27;;;;;;;3.75;3.17;;;;;;;43.98;21.34;99479.80;1731720;81;20965;-71
2022/06/28 05:57:55;;;;;;;3.62;3.33;;;;;;;44.30;20.99;99469.52;1731817;81;21077;-68
2022/06/28 06:00:22;;;;;;;10.53;3.33;;;;;;;44.67;20.67;99471.45;1760738;80;20895;-71
2022/06/28 06:02:49;;;;;;;6.22;3.25;;;;;;;45.27;20.17;99474.95;1760914;79;21118;-73
2022/06/28 06:05:16;;;;;;;4.50;3.20;;;;;;;45.86;19.06;99468.46;1752726;79;21484;-72
2022/06/28 06:07:43;;;;;;;3.52;3.22;;;;;;;46.31;18.74;99472.29;1743958;80;20836;-71
2022/06/28 06:10:10;;;;;;;3.87;3.02;;;;;;;46.50;18.33;99467.59;1769165;81;20955;-74
2022/06/28 06:12:37;;;;;;;4.58;3.12;;;;;;;46.61;18.70;99466.73;1759180;81;20974;-69
2022/06/28 06:15:05;;;;;;;4.67;3.08;;;;;;;46.83;18.00;99468.23;1764945;81;21307;-71
2022/06/28 06:17:32;;;;;;;7.55;3.47;;;;;;;46.93;17.50;99477.19;1737678;81;21362;-69
2022/06/28 06:19:59;;;;;;;5.30;3.20;;;;;;;46.95;17.77;99464.30;1743400;81;20887;-71
2022/06/28 06:22:25;;;;;;;3.47;2.90;;;;;;;47.08;17.86;99471.63;1734123;81;21000;-68
2022/06/28 06:24:53;;;;;;;5.65;3.27;;;;;;;47.07;16.90;99468.02;1777193;79;20998;-68
2022/06/28 06:27:24;;;;;;;3.77;3.17;;;;;;;47.23;17.22;99474.55;1761418;80;21807;-70
2022/06/28 06:29:51;;;;;;;3.95;3.25;;;;;;;47.36;16.95;99473.41;1732195;81;21049;-68
2022/06/28 06:32:20;;;;;;;5.40;3.50;;;;;;;47.24;17.29;99478.16;1738956;81;22365;-67
2022/06/28 06:35:00;;;;;;;5.67;3.50;;;;;;;47.46;17.12;99480.38;1727024;81;20960;-68
2022/06/28 06:37:27;;;;;;;3.42;3.12;;;;;;;47.72;16.58;99480.31;1736052;81;20996;-71
2022/06/28 06:39:54;;;;;;;4.05;2.80;;;;;;;47.69;16.49;99489.63;1733379;81;21137;-67
2022/06/28 06:42:20;;;;;;;3.22;2.85;;;;;;;47.83;16.52;99483.84;1740266;80;21642;-67
2022/06/28 06:44:47;;;;;;;3.42;3.12;;;;;;;47.98;16.26;99481.04;1746111;80;21568;-66
2022/06/28 06:47:14;;;;;;;3.85;3.15;;;;;;;48.01;16.56;99476.58;1762720;80;20930;-69
2022/06/28 06:49:41;;;;;;;5.60;3.10;;;;;;;48.38;16.64;99473.70;1740247;80;20922;-67
2022/06/28 06:52:08;;;;;;;5.20;2.90;;;;;;;49.00;15.79;99475.23;1740176;80;21201;-67
2022/06/28 06:54:36;;;;;;;3.22;3.02;;;;;;;49.54;15.28;99475.32;1739632;80;21452;-70
2022/06/28 06:57:04;;;;;;;5.03;2.92;;;;;;;49.76;14.74;99475.72;1740058;80;20967;-69
2022/06/28 06:59:31;;;;;;;3.72;3.42;;;;;;;49.69;14.41;99473.84;1740339;80;20930;-68
2022/06/28 07:01:58;;;;;;;4.60;3.45;;;;;;;49.63;14.64;99471.33;1740255;80;20966;-71
2022/06/28 07:04:26;;;;;;;3.70;3.30;;;;;;;49.84;14.67;99470.11;1762643;80;21318;-66
2022/06/28 07:06:55;;;;;;;5.20;3.15;;;;;;;50.13;14.55;99470.34;1746442;80;20946;-67
2022/06/28 07:09:23;;;;;;;4.00;2.75;;;;;;;50.38;14.68;99477.69;1759736;80;21077;-67
2022/06/28 07:11:49;;;;;;;3.30;3.00;;;;;;;50.73;13.68;99474.69;1778934;80;20856;-70
2022/06/28 07:14:16;;;;;;;4.78;2.77;;;;;;;50.84;13.58;99476.04;1740261;80;20902;-69
2022/06/28 07:16:45;;;;;;;3.25;2.87;;;;;;;50.57;13.25;99477.66;1740444;80;22007;-71
2022/06/28 07:19:13;;;;;;;2.62;2.42;;;;;;;50.24;13.17;99483.03;1758421;80;20882;-69
2022/06/28 07:21:40;;;;;;;2.67;2.47;;;;;;;50.16;13.09;99484.42;1740522;80;20926;-67
2022/06/28 07:24:09;;;;;;;3.77;2.70;;;;;;;50.14;13.37;99485.48;1769915;80;20902;-69
2022/06/28 07:26:37;;;;;;;3.58;2.52;;;;;;;49.65;13.31;99486.42;1740377;80;21725;-68
2022/06/28 07:29:04;;;;;;;2.60;2.40;;;;;;;49.47;13.64;99487.54;1740182;80;21224;-70
2022/06/28 07:31:32;;;;;;;3.05;2.75;;;;;;;49.56;13.41;99490.42;1743288;80;20940;-68
2022/06/28 07:33:59;;;;;;;3.17;2.98;;;;;;;49.79;13.31;99487.58;1744809;80;20938;-68
2022/06/28 07:36:26;;;;;;;3.08;2.77;;;;;;;49.70;13.59;99484.54;1740486;80;20946;-71
2022/06/28 07:38:54;;;;;;;4.20;2.77;;;;;;;49.87;13.48;99484.18;1740391;80;20942;-71
2022/06/28 07:41:23;;;;;;;2.92;2.25;;;;;;;50.00;12.94;99490.01;1755159;80;21123;-67
2022/06/28 07:44:08;;;;;;;2.35;2.25;;;;;;;49.96;13.21;99485.83;1774656;79;20933;-68
2022/06/28 07:46:36;;;;;;;2.80;2.47;;;;;;;50.08;12.28;99487.21;1767645;80;21437;-69
2022/06/28 07:49:04;;;;;;;3.12;2.60;;;;;;;49.65;12.53;99487.84;1753030;81;20896;-73
2022/06/28 07:54:18;;;;;;;2.58;2.35;;;;;;;49.64;13.17;99484.84;1775262;80;21270;-70
2022/06/28 07:56:49;;;;;;;2.50;2.30;;;;;;;50.18;12.82;99483.36;1789187;80;20872;-70
2022/06/28 07:59:16;;;;;;;2.90;2.45;;;;;;;50.49;12.29;99488.16;1776837;80;20921;-67
2022/06/28 08:01:43;;;;;;;2.35;2.17;;;;;;;50.23;12.70;99480.63;1761512;80;20901;-68
2022/06/28 08:04:14;;;;;;;4.05;2.00;;;;;;;49.99;12.62;99485.57;1760207;80;21471;-72
2022/06/28 08:06:41;;;;;;;2.35;2.15;;;;;;;50.24;12.57;99485.06;1761662;80;21149;-68
2022/06/28 08:09:08;;;;;;;2.60;2.37;;;;;;;50.53;12.49;99481.81;1773095;80;20987;-67
2022/06/28 08:11:36;;;;;;;2.67;2.47;;;;;;;50.98;12.17;99475.70;1771424;79;21016;-68
2022/06/28 08:14:03;;;;;;;2.40;2.20;;;;;;;51.32;11.82;99471.00;1792831;80;20927;-67
2022/06/28 08:16:29;;;;;;;3.50;2.20;;;;;;;51.32;11.32;99469.59;1774287;79;21397;-68
2022/06/28 08:18:57;;;;;;;4.95;2.10;;;;;;;50.40;11.56;99478.06;1767924;80;21952;-66
2022/06/28 08:21:26;;;;;;;2.22;2.05;;;;;;;49.76;12.16;99477.13;1775492;79;20964;-67
2022/06/28 08:23:53;;;;;;;2.35;2.15;;;;;;;49.27;12.18;99473.19;1761501;80;21636;-68
2022/06/28 08:26:20;;;;;;;2.58;2.00;;;;;;;49.00;12.78;99468.17;1761591;80;21416;-67
2022/06/28 08:28:47;;;;;;;2.37;2.17;;;;;;;49.15;12.45;99469.55;1763346;80;21475;-67
2022/06/28 08:31:13;;;;;;;2.50;2.27;;;;;;;48.97;12.59;99464.17;1781449;80;21252;-66
2022/06/28 08:33:40;;;;;;;2.45;2.25;;;;;;;49.45;12.29;99471.64;1761615;80;20874;-69
2022/06/28 08:36:07;;;;;;;2.85;2.33;;;;;;;48.83;12.48;99477.10;1761644;80;20929;-67
2022/06/28 08:38:34;;;;;;;2.30;2.20;;;;;;;47.41;13.54;99470.14;1761570;78;20921;-68
2022/06/28 08:41:00;;;;;;;5.05;2.10;;;;;;;46.43;14.40;99472.47;1754783;80;21034;-67
2022/06/28 08:43:27;;;;;;;2.40;2.30;;;;;;;45.76;14.97;99467.09;1761859;81;22304;-67
2022/06/28 08:45:53;;;;;;;2.25;2.00;;;;;;;46.11;14.75;99464.77;1732190;81;20939;-67
2022/06/28 08:48:27;;;;;;;2.27;2.12;;;;;;;46.52;14.54;99458.73;1761592;81;20934;-68
2022/06/28 08:50:53;;;;;;;7.97;2.10;;;;;;;46.62;14.63;99466.33;1732683;81;21006;-69
2022/06/28 08:53:23;;;;;;;5.08;2.50;;;;;;;45.68;14.80;99466.91;1768488;81;21045;-68
2022/06/28 08:55:51;;;;;;;5.33;2.22;;;;;;;45.30;15.56;99462.92;1753283;81;21253;-68
2022/06/28 08:58:17;;;;;;;2.60;2.40;;;;;;;45.67;15.28;99456.86;1761372;81;20955;-70
2022/06/28 09:00:44;;;;;;;3.45;1.92;;;;;;;46.36;14.85;99449.98;1732389;81;20890;-68
2022/06/28 09:03:10;;;;;;;2.10;1.92;;;;;;;46.81;14.59;99446.11;1732199;81;20922;-66
2022/06/28 09:05:37;;;;;;;2.12;1.98;;;;;;;47.63;13.80;99447.02;1732361;81;20982;-66
2022/06/28 09:08:05;;;;;;;1.95;1.80;;;;;;;47.19;14.13;99444.83;1758376;81;21211;-71
2022/06/28 09:10:31;;;;;;;3.72;3.05;;;;;;;46.88;14.39;99442.45;1734542;79;21378;-68
2022/06/28 09:13:11;;;;;;;2.30;2.10;;;;;;;47.46;13.93;99444.36;1755298;81;20931;-67
2022/06/28 09:15:53;;;;;;;2.25;1.98;;;;;;;47.52;13.42;99441.29;1734471;81;20938;-67
2022/06/28 09:18:26;;;;;;;3.50;2.20;;;;;;;46.60;14.13;99442.01;1760057;81;21311;-67
2022/06/28 09:20:56;;;;;;;2.35;2.08;;;;;;;45.63;14.96;99437.20;1758780;79;21133;-68
2022/06/28 09:23:29;;;;;;;2.30;2.15;;;;;;;45.46;15.39;99441.43;1732173;81;21555;-68
2022/06/28 09:25:59;;;;;;;2.65;2.12;;;;;;;45.74;15.19;99440.78;1731721;80;20922;-68
2022/06/28 09:28:30;;;;;;;5.47;2.47;;;;;;;45.80;15.30;99429.94;1732325;81;21034;-68
2022/06/28 09:31:22;;;;;;;2.77;2.35;;;;;;;46.38;15.16;99427.91;1732821;80;20977;-67
2022/06/28 09:34:05;;;;;;;2.40;2.20;;;;;;;47.22;14.31;99427.09;1737389;81;21170;-69
2022/06/28 09:36:41;;;;;;;2.25;1.90;;;;;;;45.71;15.01;99440.81;1761131;81;21452;-66
2022/06/28 09:39:16;;;;;;;5.33;2.77;;;;;;;43.37;16.57;99438.00;1732333;81;20891;-67
2022/06/28 09:41:50;;;;;;;4.10;2.10;;;;;;;41.85;17.94;99442.55;1732265;81;21508;-67
2022/06/28 09:44:17;;;;;;;3.62;2.58;;;;;;;40.73;19.55;99447.11;1732335;81;21084;-67
2022/06/28 09:46:44;;;;;;;2.20;2.10;;;;;;;40.87;19.63;99440.37;1732231;81;21296;-72
2022/06/28 09:49:12;;;;;;;3.98;2.72;;;;;;;40.40;19.80;99437.30;1737434;81;20921;-67
2022/06/28 09:51:39;;;;;;;4.03;3.62;;;;;;;40.42;20.08;99431.35;1744429;81;20982;-67
2022/06/28 09:54:08;;;;;;;2.52;2.40;;;;;;;40.05;20.53;99440.77;1753848;81;21079;-66
2022/06/28 09:56:42;;;;;;;2.35;2.17;;;;;;;39.10;20.84;99436.56;1732320;81;20910;-67
2022/06/28 09:59:10;;;;;;;2.60;2.15;;;;;;;38.25;21.83;99438.42;1751857;81;20872;-67
2022/06/28 10:01:37;;;;;;;3.55;2.37;;;;;;;37.78;22.72;99442.17;1770586;79;20885;-67
2022/06/28 10:04:04;;;;;;;2.72;2.37;;;;;;;38.39;22.38;99439.44;1732369;81;20903;-70
2022/06/28 10:06:31;;;;;;;1.98;1.87;;;;;;;39.74;21.52;99438.89;1732407;81;21487;-67
2022/06/28 10:08:58;;;;;;;3.67;2.22;;;;;;;40.08;20.19;99440.03;1764834;81;21021;-68
2022/06/28 10:11:25;;;;;;;3.08;2.00;;;;;;;39.65;20.82;99446.66;1748524;81;22127;-68
2022/06/28 10:17:04;;;;;;;3.83;2.30;;;;;;;38.26;21.94;99442.02;1732312;81;20970;-70
2022/06/28 10:19:29;;;;;;;2.42;2.20;;;;;;;37.44;23.04;99443.51;1748429;81;21476;-69
2022/06/28 10:22:07;;;;;;;2.72;1.98;;;;;;;36.89;24.05;99436.49;1710637;81;20919;-67
2022/06/28 10:24:52;;;;;;;3.42;2.00;;;;;;;36.87;24.43;99424.95;1756653;80;21249;-67
2022/06/28 10:27:19;;;;;;;2.60;2.40;;;;;;;36.90;24.78;99435.92;1740059;80;20943;-68
2022/06/28 10:30:10;;;;;;;2.30;2.10;;;;;;;36.62;24.82;99433.00;1732385;81;20974;-68
2022/06/28 10:32:50;;;;;;;2.58;2.37;;;;;;;36.17;25.45;99430.17;1747128;80;20895;-71
2022/06/28 10:35:35;;;;;;;3.62;2.50;;;;;;;35.72;26.37;99434.19;1750522;81;21467;-67
2022/06/28 10:38:12;;;;;;;2.65;2.45;;;;;;;35.59;26.73;99429.72;1744758;79;21248;-72
2022/06/28 10:40:47;;;;;;;2.70;2.50;;;;;;;35.59;27.62;99426.95;1770841;80;20872;-71
2022/06/28 10:43:17;;;;;;;2.95;2.37;;;;;;;35.69;26.91;99429.92;1786588;79;21460;-67
2022/06/28 10:46:05;;;;;;;2.58;2.12;;;;;;;35.68;27.04;99436.59;1771376;79;21433;-67
2022/06/28 10:48:54;;;;;;;2.83;2.10;;;;;;;35.47;27.24;99426.05;1766008;80;20933;-67
2022/06/28 10:51:20;;;;;;;2.65;2.10;;;;;;;35.32;26.94;99424.69;1756767;80;21149;-67
2022/06/28 10:54:04;;;;;;;2.60;2.50;;;;;;;35.11;27.14;99418.30;1756840;80;20972;-72
2022/06/28 10:56:39;;;;;;;4.25;2.55;;;;;;;34.95;27.94;99424.92;1756687;80;20937;-68
2022/06/28 10:59:12;;;;;;;2.62;2.45;;;;;;;34.79;28.31;99418.32;1756834;80;20961;-66
2022/06/28 11:01:53;;;;;;;3.00;2.30;;;;;;;34.70;28.27;99420.32;1759330;80;20977;-66
2022/06/28 11:04:26;;;;;;;2.33;2.22;;;;;;;34.59;27.92;99409.38;1772626;80;21852;-67
2022/06/28 11:07:05;;;;;;;2.70;2.50;;;;;;;34.57;28.17;99415.81;1756762;80;21016;-67
2022/06/28 11:10:03;;;;;;;2.40;2.20;;;;;;;34.61;28.28;99411.23;1756928;80;20882;-68
2022/06/28 11:12:37;;;;;;;3.10;2.20;;;;;;;34.62;28.37;99407.34;1765239;80;20945;-66
2022/06/28 11:15:09;;;;;;;2.72;2.20;;;;;;;34.53;28.38;99418.95;1756853;80;20878;-66
2022/06/28 11:17:44;;;;;;;2.92;2.08;;;;;;;34.55;28.67;99413.90;1756824;80;22121;-67
2022/06/28 11:20:14;;;;;;;2.27;2.17;;;;;;;34.60;29.15;99406.84;1778941;80;20915;-69
2022/06/28 11:22:44;;;;;;;2.80;2.60;;;;;;;34.66;29.00;99402.20;1776480;80;21425;-68
2022/06/28 11:25:14;;;;;;;2.35;2.20;;;;;;;34.78;28.72;99401.52;1755908;80;20862;-68
2022/06/28 11:27:52;;;;;;;2.58;2.37;;;;;;;34.88;28.48;99399.77;1765918;80;21468;-67
2022/06/28 11:30:23;;;;;;;3.98;2.37;;;;;;;34.99;27.77;99396.84;1778399;80;21174;-67
2022/06/28 11:32:50;;;;;;;2.72;2.50;;;;;;;35.07;27.99;99396.59;1761662;80;20876;-69
2022/06/28 11:35:25;;;;;;;2.90;2.33;;;;;;;35.00;28.09;99397.09;1756672;80;20909;-70
2022/06/28 11:38:09;;;;;;;2.83;2.30;;;;;;;34.78;28.38;99390.47;1778768;80;21025;-66
2022/06/28 11:40:47;;;;;;;2.33;2.12;;;;;;;34.40;28.45;99384.88;1756891;80;21092;-69
2022/06/28 11:43:19;;;;;;;3.02;2.60;;;;;;;34.13;29.13;99388.01;1737848;80;21270;-70
2022/06/28 11:45:51;;;;;;;2.58;2.20;;;;;;;34.03;29.43;99387.76;1755161;81;21033;-67
2022/06/28 11:48:23;;;;;;;4.08;2.40;;;;;;;33.93;28.50;99385.34;1736283;81;20927;-72
2022/06/28 11:50:54;;;;;;;3.37;2.20;;;;;;;33.74;28.29;99382.09;1715199;81;20905;-67
2022/06/28 11:53:21;;;;;;;3.52;2.22;;;;;;;33.66;29.09;99384.27;1740798;80;20884;-67
2022/06/28 11:55:51;;;;;;;2.95;2.00;;;;;;;33.65;29.47;99381.30;1773825;81;21237;-67